createdAt,value
2023-04-26T00:00:50.404Z,81.83
2023-04-26T00:03:20.821Z,82.02
2023-04-26T00:05:53.634Z,81.99
2023-04-26T00:08:23.639Z,82.08
2023-04-26T00:10:53.590Z,82.38
2023-04-26T00:13:23.736Z,82.42
2023-04-26T00:15:53.791Z,82.00
2023-04-26T00:18:23.874Z,82.24
2023-04-26T00:20:56.677Z,82.22
2023-04-26T00:23:26.762Z,82.39
2023-04-26T00:25:56.675Z,82.47
2023-04-26T00:28:26.637Z,82.50
2023-04-26T00:30:58.179Z,82.62
2023-04-26T00:33:28.205Z,82.34
2023-04-26T00:36:00.700Z,82.18
2023-04-26T00:38:31.777Z,82.27
2023-04-26T00:41:01.672Z,82.17
2023-04-26T00:43:31.696Z,82.65
2023-04-26T00:46:01.937Z,82.56
2023-04-26T00:48:32.420Z,82.76
2023-04-26T00:51:05.766Z,82.59
2023-04-26T00:53:35.741Z,82.94
2023-04-26T00:56:06.955Z,83.35
2023-04-26T00:58:37.111Z,83.13
2023-04-26T01:01:08.018Z,83.00
2023-04-26T01:03:40.826Z,82.82
2023-04-26T01:06:14.259Z,82.74
2023-04-26T01:08:44.811Z,82.88
2023-04-26T01:11:14.915Z,83.00
2023-04-26T01:13:45.126Z,82.90
2023-04-26T01:16:19.342Z,82.58
2023-04-26T01:18:54.343Z,82.04
2023-04-26T01:21:27.908Z,82.00
2023-04-26T01:24:01.496Z,82.21
2023-04-26T01:26:31.808Z,82.51
2023-04-26T01:29:01.786Z,82.57
2023-04-26T01:31:31.797Z,82.37
2023-04-26T01:34:01.754Z,82.37
2023-04-26T01:36:32.705Z,82.57
2023-04-26T01:39:05.875Z,82.54
2023-04-26T01:41:36.015Z,82.58
2023-04-26T01:44:05.986Z,82.67
2023-04-26T01:46:36.170Z,82.28
2023-04-26T01:49:06.245Z,82.47
2023-04-26T01:51:37.163Z,82.66
2023-04-26T01:54:12.515Z,82.51
2023-04-26T01:56:42.499Z,82.80
2023-04-26T01:59:12.490Z,82.97
2023-04-26T02:01:44.781Z,82.97
2023-04-26T02:04:14.864Z,82.72
2023-04-26T02:06:45.127Z,82.40
2023-04-26T02:09:18.352Z,82.23
2023-04-26T02:11:48.465Z,82.00
2023-04-26T02:14:18.433Z,81.78
2023-04-26T02:16:48.369Z,81.74
2023-04-26T02:19:18.374Z,81.74
2023-04-26T02:21:59.559Z,81.76
2023-04-26T02:24:33.470Z,81.88
2023-04-26T02:27:05.677Z,81.99
2023-04-26T02:29:44.237Z,82.04
2023-04-26T02:32:14.998Z,81.95
2023-04-26T02:34:45.620Z,82.22
2023-04-26T02:37:15.674Z,82.07
2023-04-26T02:39:48.221Z,82.46
2023-04-26T02:42:18.197Z,82.06
2023-04-26T02:44:48.243Z,81.95
2023-04-26T02:47:18.612Z,81.50
2023-04-26T02:49:49.760Z,81.15
2023-04-26T02:52:19.719Z,81.37
2023-04-26T02:54:53.314Z,81.27
2023-04-26T02:57:24.009Z,80.97
2023-04-26T02:59:53.998Z,80.89
2023-04-26T03:02:24.487Z,80.83
2023-04-26T03:04:54.722Z,80.60
2023-04-26T03:07:25.132Z,80.84
2023-04-26T03:09:58.094Z,80.99
2023-04-26T03:12:28.073Z,80.81
2023-04-26T03:14:58.050Z,80.71
2023-04-26T03:17:28.945Z,80.41
2023-04-26T03:20:01.844Z,80.28
2023-04-26T03:22:32.633Z,80.35
2023-04-26T03:25:05.696Z,80.28
2023-04-26T03:27:36.858Z,80.23
2023-04-26T03:30:07.976Z,79.71
2023-04-26T03:32:39.529Z,79.60
2023-04-26T03:35:10.599Z,79.70
2023-04-26T03:37:41.953Z,79.87
2023-04-26T03:40:17.963Z,80.13
2023-04-26T03:42:48.677Z,80.00
2023-04-26T03:45:19.176Z,79.69
2023-04-26T03:47:49.417Z,79.76
2023-04-26T03:50:19.554Z,79.89
2023-04-26T03:52:50.073Z,79.72
2023-04-26T03:55:22.742Z,79.62
2023-04-26T03:57:54.079Z,79.63
2023-04-26T04:00:26.432Z,79.54
2023-04-26T04:02:56.596Z,79.37
2023-04-26T04:05:28.443Z,79.24
2023-04-26T04:07:59.290Z,79.39
2023-04-26T04:10:32.381Z,79.12
2023-04-26T04:13:02.548Z,78.91
2023-04-26T04:15:33.456Z,79.06
2023-04-26T04:18:04.534Z,79.04
2023-04-26T04:20:34.652Z,78.79
2023-04-26T04:23:07.856Z,78.62
2023-04-26T04:25:41.519Z,78.36
2023-04-26T04:28:14.752Z,78.78
2023-04-26T04:30:46.490Z,78.70
2023-04-26T04:33:17.864Z,78.95
2023-04-26T04:35:48.302Z,78.79
2023-04-26T04:38:18.470Z,79.21
2023-04-26T04:40:53.606Z,79.53
2023-04-26T04:43:23.664Z,79.84
2023-04-26T04:45:54.050Z,80.00
2023-04-26T04:48:24.046Z,79.83
2023-04-26T04:50:54.092Z,79.78
2023-04-26T04:53:24.290Z,79.82
2023-04-26T04:55:57.166Z,79.88
2023-04-26T04:58:27.620Z,79.74
2023-04-26T05:01:01.385Z,79.23
2023-04-26T05:03:34.236Z,79.51
2023-04-26T05:06:05.943Z,79.56
2023-04-26T05:08:36.588Z,79.72
2023-04-26T05:11:11.173Z,79.82
2023-04-26T05:13:41.411Z,79.38
2023-04-26T05:16:11.408Z,79.60
2023-04-26T05:18:41.965Z,79.64
2023-04-26T05:21:12.537Z,80.11
2023-04-26T05:23:43.227Z,79.84
2023-04-26T05:26:18.063Z,79.52
2023-04-26T05:28:48.008Z,79.39
2023-04-26T05:31:42.036Z,79.74
2023-04-26T05:34:34.977Z,79.53
2023-04-26T05:37:05.071Z,79.45
2023-04-26T05:39:35.873Z,79.20
2023-04-26T05:42:08.604Z,79.07
2023-04-26T05:44:39.311Z,79.33
2023-04-26T05:47:09.370Z,78.35
2023-04-26T05:49:39.453Z,77.54
2023-04-26T05:52:09.482Z,75.95
2023-04-26T05:54:40.287Z,74.22
2023-04-26T05:57:12.920Z,72.02
2023-04-26T05:59:43.262Z,71.29
2023-04-26T06:02:13.826Z,71.57
2023-04-26T06:04:43.938Z,71.96
2023-04-26T06:07:17.485Z,72.76
2023-04-26T06:09:49.992Z,72.48
2023-04-26T06:12:22.616Z,72.13
2023-04-26T06:14:52.921Z,72.06
2023-04-26T06:17:25.483Z,71.84
2023-04-26T06:19:55.665Z,72.21
2023-04-26T06:22:25.900Z,71.77
2023-04-26T06:24:57.241Z,71.39
2023-04-26T06:27:29.871Z,71.56
2023-04-26T06:30:00.192Z,71.88
2023-04-26T06:32:30.653Z,72.34
2023-04-26T06:35:00.631Z,72.38
2023-04-26T06:37:31.232Z,71.83
2023-04-26T06:40:02.264Z,71.33
2023-04-26T06:42:34.937Z,70.69
2023-04-26T06:45:25.426Z,70.54
2023-04-26T06:47:55.541Z,70.22
2023-04-26T06:50:27.670Z,70.66
2023-04-26T06:52:57.664Z,69.98
2023-04-26T06:55:27.838Z,69.44
2023-04-26T06:58:00.506Z,68.76
2023-04-26T07:00:30.857Z,67.52
2023-04-26T07:03:01.133Z,67.71
2023-04-26T07:05:31.534Z,67.54
2023-04-26T07:08:01.606Z,67.74
2023-04-26T07:10:33.089Z,68.43
2023-04-26T07:13:08.256Z,68.50
2023-04-26T07:15:39.533Z,68.46
2023-04-26T07:18:09.663Z,68.53
2023-04-26T07:20:39.620Z,68.72
2023-04-26T07:23:09.548Z,68.77
2023-04-26T07:25:39.545Z,68.22
2023-04-26T07:28:12.088Z,67.19
2023-04-26T07:30:42.038Z,66.58
2023-04-26T07:33:12.184Z,66.89
2023-04-26T07:35:42.186Z,66.23
2023-04-26T07:38:14.623Z,65.80
2023-04-26T07:40:44.568Z,65.69
2023-04-26T07:43:17.449Z,65.54
2023-04-26T07:45:47.524Z,63.01
2023-04-26T07:48:18.162Z,62.81
2023-04-26T07:50:48.442Z,63.59
2023-04-26T07:53:18.390Z,64.09
2023-04-26T07:55:48.352Z,64.04
2023-04-26T07:58:21.715Z,63.30
2023-04-26T08:00:51.975Z,63.31
2023-04-26T08:03:22.137Z,62.47
2023-04-26T08:05:54.178Z,62.23
2023-04-26T08:08:24.874Z,62.70
2023-04-26T08:10:55.000Z,63.06
2023-04-26T08:13:29.319Z,62.40
2023-04-26T08:15:59.696Z,61.99
2023-04-26T08:18:29.802Z,61.34
2023-04-26T08:20:59.760Z,61.01
2023-04-26T08:23:29.935Z,60.93
2023-04-26T08:25:59.921Z,61.09
2023-04-26T08:28:32.999Z,61.06
2023-04-26T08:31:03.004Z,60.67
2023-04-26T08:33:33.239Z,59.42
2023-04-26T08:36:03.971Z,58.54
2023-04-26T08:38:33.951Z,55.40
2023-04-26T08:41:05.222Z,52.90
2023-04-26T08:43:41.249Z,51.40
2023-04-26T08:46:18.515Z,53.63
2023-04-26T08:48:57.657Z,54.71
2023-04-26T08:51:29.174Z,55.17
2023-04-26T08:54:04.114Z,54.52
2023-04-26T08:56:36.678Z,51.77
2023-04-26T08:59:09.600Z,52.35
2023-04-26T09:01:42.984Z,52.96
2023-04-26T09:04:13.557Z,53.32
2023-04-26T09:06:44.651Z,53.81
2023-04-26T09:09:21.359Z,52.25
2023-04-26T09:11:59.794Z,51.60
2023-04-26T09:14:32.548Z,51.07
2023-04-26T09:17:03.523Z,51.06
2023-04-26T09:19:42.699Z,50.53
2023-04-26T09:22:12.800Z,50.64
2023-04-26T09:24:53.769Z,50.69
2023-04-26T09:27:24.376Z,50.97
2023-04-26T09:30:09.692Z,50.63
2023-04-26T09:32:51.499Z,48.57
2023-04-26T09:35:33.995Z,48.13
2023-04-26T09:38:10.937Z,46.72
2023-04-26T09:40:44.831Z,47.85
2023-04-26T09:43:17.045Z,47.25
2023-04-26T09:45:51.946Z,45.61
2023-04-26T09:48:26.032Z,44.61
2023-04-26T09:50:58.527Z,44.62
2023-04-26T09:53:34.838Z,44.86
2023-04-26T09:56:13.933Z,45.64
2023-04-26T09:59:01.388Z,43.09
2023-04-26T10:01:35.145Z,44.00
2023-04-26T10:04:06.117Z,43.59
2023-04-26T10:06:36.724Z,40.91
2023-04-26T10:09:09.313Z,40.81
2023-04-26T10:11:41.547Z,40.67
2023-04-26T10:14:11.995Z,39.58
2023-04-26T10:16:47.548Z,37.98
2023-04-26T10:19:17.872Z,39.13
2023-04-26T10:21:51.579Z,37.99
2023-04-26T10:24:22.266Z,40.05
2023-04-26T10:26:53.803Z,41.31
2023-04-26T10:29:24.978Z,40.35
2023-04-26T10:32:16.665Z,40.09
2023-04-26T10:34:47.506Z,39.13
2023-04-26T10:37:18.978Z,39.13
2023-04-26T10:39:50.284Z,38.99
2023-04-26T10:42:24.675Z,37.24
2023-04-26T10:44:56.850Z,38.32
2023-04-26T10:47:32.279Z,38.78
2023-04-26T10:50:10.803Z,38.91
2023-04-26T10:53:04.989Z,38.05
2023-04-26T10:55:43.021Z,38.35
2023-04-26T10:58:29.419Z,37.84
2023-04-26T11:01:11.801Z,36.23
2023-04-26T11:03:45.726Z,35.82
2023-04-26T11:06:16.497Z,35.10
2023-04-26T11:08:46.690Z,35.00
2023-04-26T11:11:19.622Z,34.62
2023-04-26T11:13:50.303Z,34.56
2023-04-26T11:16:21.034Z,35.96
2023-04-26T11:18:57.675Z,35.36
2023-04-26T11:21:29.277Z,36.26
2023-04-26T11:23:59.328Z,35.77
2023-04-26T11:26:37.439Z,35.61
2023-04-26T11:29:13.735Z,34.75
2023-04-26T11:31:43.843Z,34.45
2023-04-26T11:34:17.159Z,34.82
2023-04-26T11:36:47.962Z,33.35
2023-04-26T11:39:18.250Z,35.30
2023-04-26T11:41:48.303Z,33.60
2023-04-26T11:44:22.495Z,32.93
2023-04-26T11:46:53.573Z,31.17
2023-04-26T11:49:29.194Z,34.29
2023-04-26T11:51:59.789Z,32.94
2023-04-26T11:54:31.752Z,32.03
2023-04-26T11:57:03.026Z,32.40
2023-04-26T11:59:34.005Z,33.08
2023-04-26T12:02:10.357Z,32.91
2023-04-26T12:04:45.022Z,32.76
2023-04-26T12:07:15.263Z,32.72
2023-04-26T12:09:45.271Z,31.07
2023-04-26T12:12:15.454Z,32.10
2023-04-26T12:14:45.922Z,31.33
2023-04-26T12:17:18.472Z,30.14
2023-04-26T12:19:53.280Z,29.75
2023-04-26T12:22:24.760Z,29.24
2023-04-26T12:25:08.103Z,30.45
2023-04-26T12:27:39.721Z,29.76
2023-04-26T12:30:11.396Z,31.12
2023-04-26T12:32:42.097Z,30.21
2023-04-26T12:35:14.890Z,29.17
2023-04-26T12:37:44.970Z,29.03
2023-04-26T12:40:16.387Z,28.21
2023-04-26T12:42:46.484Z,28.85
2023-04-26T12:45:16.856Z,27.25
2023-04-26T12:47:47.329Z,27.86
2023-04-26T12:50:20.538Z,26.76
2023-04-26T12:52:50.606Z,27.19
2023-04-26T12:55:21.810Z,25.62
2023-04-26T12:57:51.945Z,25.41
2023-04-26T13:00:23.194Z,27.93
2023-04-26T13:02:53.724Z,27.88
2023-04-26T13:05:27.452Z,26.06
2023-04-26T13:07:57.668Z,26.80
2023-04-26T13:10:28.221Z,27.63
2023-04-26T13:12:58.582Z,24.62
2023-04-26T13:15:30.166Z,23.59
2023-04-26T13:18:00.297Z,24.55
2023-04-26T13:20:32.972Z,24.81
2023-04-26T13:23:03.183Z,23.03
2023-04-26T13:25:33.209Z,19.33
2023-04-26T13:28:03.296Z,18.97
2023-04-26T13:30:36.339Z,21.15
2023-04-26T13:33:06.460Z,23.38
2023-04-26T13:35:39.109Z,25.73
2023-04-26T13:38:13.953Z,23.51
2023-04-26T13:40:44.866Z,17.64
2023-04-26T13:43:14.974Z,17.20
2023-04-26T13:45:45.005Z,16.48
2023-04-26T13:48:15.326Z,15.30
2023-04-26T13:50:48.311Z,16.55
2023-04-26T13:53:19.869Z,22.12
2023-04-26T13:55:49.919Z,21.71
2023-04-26T13:58:20.050Z,21.62
2023-04-26T14:00:50.213Z,24.92
2023-04-26T14:03:20.435Z,20.55
2023-04-26T14:05:53.245Z,14.92
2023-04-26T14:08:23.399Z,16.02
2023-04-26T14:10:53.568Z,14.82
2023-04-26T14:13:23.713Z,15.20
2023-04-26T14:15:53.878Z,13.94
2023-04-26T14:18:23.951Z,13.55
2023-04-26T14:20:56.790Z,14.29
2023-04-26T14:23:27.074Z,13.01
2023-04-26T14:25:57.136Z,16.09
2023-04-26T14:28:27.297Z,13.25
2023-04-26T14:30:57.409Z,12.32
2023-04-26T14:33:27.592Z,10.96
2023-04-26T14:36:00.212Z,11.84
2023-04-26T14:38:30.353Z,11.38
2023-04-26T14:41:00.401Z,11.68
2023-04-26T14:43:30.485Z,14.83
2023-04-26T14:46:00.603Z,11.35
2023-04-26T14:48:30.679Z,11.88
2023-04-26T14:51:06.690Z,11.00
2023-04-26T14:53:36.788Z,11.53
2023-04-26T14:56:07.819Z,11.80
2023-04-26T14:58:37.995Z,10.37
2023-04-26T15:01:08.213Z,11.67
2023-04-26T15:03:38.621Z,11.30
2023-04-26T15:06:11.675Z,10.69
2023-04-26T15:08:41.749Z,11.26
2023-04-26T15:11:11.835Z,11.59
2023-04-26T15:13:41.963Z,10.88
2023-04-26T15:16:12.078Z,11.07
2023-04-26T15:18:42.170Z,10.79
2023-04-26T15:21:19.239Z,11.30
2023-04-26T15:23:49.360Z,11.84
2023-04-26T15:26:20.039Z,11.50
2023-04-26T15:28:50.051Z,11.65
2023-04-26T15:31:20.129Z,15.67
2023-04-26T15:33:50.163Z,18.74
2023-04-26T15:36:24.482Z,13.64
2023-04-26T15:38:54.612Z,12.80
2023-04-26T15:41:24.622Z,13.32
2023-04-26T15:43:57.498Z,11.14
2023-04-26T15:46:27.650Z,11.70
2023-04-26T15:48:57.847Z,11.44
2023-04-26T15:51:30.711Z,11.55
2023-04-26T15:54:00.913Z,11.20
2023-04-26T15:56:31.089Z,11.37
2023-04-26T15:59:01.172Z,10.14
2023-04-26T16:01:31.650Z,11.80
2023-04-26T16:04:01.871Z,13.79
2023-04-26T16:06:35.806Z,15.42
2023-04-26T16:09:22.966Z,16.18
2023-04-26T16:11:54.650Z,16.89
2023-04-26T16:14:24.837Z,16.41
2023-04-26T16:16:54.782Z,17.70
2023-04-26T16:19:24.782Z,19.01
2023-04-26T16:21:57.414Z,18.23
2023-04-26T16:24:27.461Z,18.89
2023-04-26T16:26:57.419Z,20.95
2023-04-26T16:29:27.995Z,21.05
2023-04-26T16:31:58.099Z,22.43
2023-04-26T16:34:28.441Z,22.20
2023-04-26T16:37:01.088Z,23.72
2023-04-26T16:39:31.909Z,23.42
2023-04-26T16:42:02.400Z,23.87
2023-04-26T16:44:32.716Z,24.30
2023-04-26T16:47:02.935Z,24.82
2023-04-26T16:49:32.893Z,25.36
2023-04-26T16:52:05.572Z,25.64
2023-04-26T16:54:35.635Z,25.05
2023-04-26T16:57:06.174Z,25.12
2023-04-26T16:59:36.411Z,24.39
2023-04-26T17:02:06.904Z,21.89
2023-04-26T17:04:37.247Z,20.63
2023-04-26T17:07:10.134Z,22.20
2023-04-26T17:09:40.141Z,22.82
2023-04-26T17:12:10.198Z,23.67
2023-04-26T17:14:41.188Z,24.25
2023-04-26T17:17:11.180Z,25.09
2023-04-26T17:19:41.291Z,25.00
2023-04-26T17:22:13.946Z,25.48
2023-04-26T17:24:43.949Z,27.80
2023-04-26T17:27:13.989Z,27.98
2023-04-26T17:29:43.970Z,27.57
2023-04-26T17:32:14.163Z,28.32
2023-04-26T17:34:45.724Z,28.99
2023-04-26T17:37:18.441Z,29.44
2023-04-26T17:39:48.452Z,29.76
2023-04-26T17:42:18.633Z,30.04
2023-04-26T17:44:48.676Z,30.10
2023-04-26T17:47:18.768Z,31.09
2023-04-26T17:49:48.776Z,31.74
2023-04-26T17:52:21.362Z,31.84
2023-04-26T17:54:51.643Z,32.23
2023-04-26T17:57:23.961Z,33.17
2023-04-26T17:59:54.664Z,33.53
2023-04-26T18:02:24.838Z,33.91
2023-04-26T18:04:56.758Z,34.47
2023-04-26T18:07:29.555Z,35.10
2023-04-26T18:09:59.717Z,34.66
2023-04-26T18:12:30.922Z,34.88
2023-04-26T18:15:01.128Z,34.36
2023-04-26T18:17:31.243Z,34.03
2023-04-26T18:20:01.949Z,34.29
2023-04-26T18:22:34.664Z,35.98
2023-04-26T18:25:04.957Z,36.38
2023-04-26T18:27:35.437Z,36.80
2023-04-26T18:30:05.687Z,36.83
2023-04-26T18:32:35.919Z,37.50
2023-04-26T18:35:07.502Z,37.26
2023-04-26T18:37:41.355Z,38.14
2023-04-26T18:40:12.855Z,37.98
2023-04-26T18:42:45.132Z,38.39
2023-04-26T18:45:15.938Z,37.62
2023-04-26T18:47:45.942Z,39.69
2023-04-26T18:50:15.937Z,39.72
2023-04-26T18:52:48.637Z,38.29
2023-04-26T18:55:18.868Z,40.03
2023-04-26T18:57:49.323Z,40.23
2023-04-26T19:00:20.241Z,40.19
2023-04-26T19:02:51.361Z,40.92
2023-04-26T19:05:21.759Z,40.97
2023-04-26T19:07:57.321Z,40.98
2023-04-26T19:10:27.448Z,40.94
2023-04-26T19:12:57.430Z,41.83
2023-04-26T19:15:27.632Z,41.76
2023-04-26T19:17:58.720Z,41.42
2023-04-26T19:20:29.828Z,41.75
2023-04-26T19:23:02.488Z,42.77
2023-04-26T19:25:32.552Z,42.78
2023-04-26T19:28:04.882Z,42.38
2023-04-26T19:30:48.850Z,43.13
2023-04-26T19:33:18.892Z,43.71
2023-04-26T19:35:49.050Z,43.76
2023-04-26T19:38:22.113Z,43.83
2023-04-26T19:40:53.279Z,44.06
2023-04-26T19:43:23.975Z,43.94
2023-04-26T19:45:54.227Z,44.54
2023-04-26T19:48:24.433Z,43.92
2023-04-26T19:50:54.550Z,45.51
2023-04-26T19:53:27.867Z,45.06
2023-04-26T19:55:57.805Z,45.16
2023-04-26T19:58:27.838Z,45.85
2023-04-26T20:00:58.059Z,46.14
2023-04-26T20:03:28.490Z,46.67
2023-04-26T20:05:58.773Z,46.64
2023-04-26T20:08:31.656Z,45.86
2023-04-26T20:11:05.216Z,45.09
2023-04-26T20:13:36.032Z,45.15
2023-04-26T20:16:06.552Z,44.50
2023-04-26T20:18:37.125Z,44.98
2023-04-26T20:21:07.220Z,45.22
2023-04-26T20:23:40.003Z,46.51
2023-04-26T20:26:10.021Z,46.40
2023-04-26T20:28:40.175Z,45.72
2023-04-26T20:31:10.257Z,46.28
2023-04-26T20:33:40.357Z,46.25
2023-04-26T20:36:11.395Z,46.75
2023-04-26T20:38:44.222Z,45.90
2023-04-26T20:41:14.289Z,46.98
2023-04-26T20:43:44.542Z,47.22
2023-04-26T20:46:14.562Z,46.77
2023-04-26T20:48:44.596Z,46.88
2023-04-26T20:51:14.628Z,48.03
2023-04-26T20:53:47.302Z,47.52
2023-04-26T20:56:17.246Z,48.00
2023-04-26T20:58:47.390Z,48.11
2023-04-26T21:01:17.464Z,48.32
2023-04-26T21:03:47.685Z,47.67
2023-04-26T21:06:18.106Z,47.62
2023-04-26T21:08:50.892Z,48.08
2023-04-26T21:11:20.928Z,48.25
2023-04-26T21:13:50.989Z,48.40
2023-04-26T21:16:21.149Z,48.86
2023-04-26T21:18:51.266Z,49.08
2023-04-26T21:21:21.875Z,49.88
2023-04-26T21:23:54.504Z,49.70
2023-04-26T21:26:24.615Z,49.52
2023-04-26T21:28:54.623Z,49.68
2023-04-26T21:31:24.731Z,49.68
2023-04-26T21:33:54.798Z,50.11
2023-04-26T21:36:24.796Z,49.90
2023-04-26T21:38:57.437Z,49.80
2023-04-26T21:41:30.296Z,49.87
2023-04-26T21:44:00.307Z,50.12
2023-04-26T21:46:30.932Z,49.99
2023-04-26T21:49:00.950Z,50.21
2023-04-26T21:51:31.436Z,50.11
2023-04-26T21:54:04.032Z,50.74
2023-04-26T21:56:34.105Z,50.54
2023-04-26T21:59:04.885Z,50.93
2023-04-26T22:01:34.959Z,50.98
2023-04-26T22:04:05.096Z,51.30
2023-04-26T22:06:35.266Z,51.13
2023-04-26T22:09:09.773Z,50.89
2023-04-26T22:11:40.095Z,51.32
2023-04-26T22:14:10.194Z,50.90
2023-04-26T22:16:40.196Z,50.91
2023-04-26T22:19:10.708Z,51.35
2023-04-26T22:21:41.044Z,51.36
2023-04-26T22:24:13.763Z,51.65
2023-04-26T22:26:43.728Z,52.06
2023-04-26T22:29:13.729Z,52.04
2023-04-26T22:31:43.937Z,51.72
2023-04-26T22:34:13.984Z,51.63
2023-04-26T22:36:43.937Z,51.81
2023-04-26T22:39:17.360Z,52.54
2023-04-26T22:41:47.382Z,52.47
2023-04-26T22:44:17.582Z,51.95
2023-04-26T22:46:47.561Z,52.49
2023-04-26T22:49:17.538Z,52.30
2023-04-26T22:51:57.354Z,52.70
2023-04-26T22:54:38.183Z,52.79
2023-04-26T22:57:08.457Z,52.57
2023-04-26T22:59:38.387Z,52.46
2023-04-26T23:02:08.364Z,52.52
2023-04-26T23:04:38.349Z,52.56
2023-04-26T23:07:08.360Z,53.19
2023-04-26T23:09:41.245Z,53.29
2023-04-26T23:12:11.520Z,53.59
2023-04-26T23:14:41.567Z,54.22
2023-04-26T23:17:13.030Z,53.87
2023-04-26T23:19:43.204Z,54.28
2023-04-26T23:22:13.206Z,53.95
2023-04-26T23:24:45.761Z,54.69
2023-04-26T23:27:15.910Z,56.41
2023-04-26T23:29:45.973Z,54.50
2023-04-26T23:32:16.372Z,54.13
2023-04-26T23:34:46.748Z,53.81
2023-04-26T23:37:16.903Z,54.55
2023-04-26T23:39:49.462Z,54.83
2023-04-26T23:42:19.449Z,55.19
2023-04-26T23:44:49.670Z,55.38
2023-04-26T23:47:19.774Z,55.41
2023-04-26T23:49:49.779Z,55.32
2023-04-26T23:52:19.806Z,55.30
2023-04-26T23:54:52.378Z,55.71
2023-04-26T23:57:22.373Z,55.64
2023-04-26T23:59:52.857Z,55.59
